createdAt,value
2018-11-21T00:00:54.398Z,0.40
2018-11-21T00:03:41.464Z,0.30
2018-11-21T00:06:28.027Z,0.40
2018-11-21T00:09:14.998Z,0.50
2018-11-21T00:12:02.154Z,0.40
2018-11-21T00:14:49.247Z,0.60
2018-11-21T00:17:36.359Z,0.90
2018-11-21T00:20:23.790Z,1.00
2018-11-21T00:23:10.678Z,0.90
2018-11-21T00:25:57.494Z,0.70
2018-11-21T00:28:44.360Z,0.60
2018-11-21T00:31:32.265Z,0.30
2018-11-21T00:34:19.129Z,0.20
2018-11-21T00:37:06.215Z,0.30
2018-11-21T00:39:53.435Z,0.10
2018-11-21T00:42:46.391Z,0.20
2018-11-21T00:45:27.343Z,0.40
2018-11-21T00:48:14.526Z,0.40
2018-11-21T00:51:01.344Z,0.10
2018-11-21T00:53:48.538Z,0.20
2018-11-21T00:56:35.686Z,0.20
2018-11-21T00:59:22.291Z,0.30
2018-11-21T01:02:09.216Z,0.20
2018-11-21T01:04:56.389Z,0.20
2018-11-21T01:07:43.279Z,0.40
2018-11-21T01:10:30.388Z,0.50
2018-11-21T01:13:17.507Z,0.30
2018-11-21T01:16:04.376Z,0.40
2018-11-21T01:18:51.545Z,0.70
2018-11-21T01:21:39.157Z,0.90
2018-11-21T01:24:26.858Z,0.90
2018-11-21T01:27:13.438Z,1.00
2018-11-21T01:30:00.533Z,1.10
2018-11-21T01:32:47.878Z,0.90
2018-11-21T01:35:34.912Z,0.80
2018-11-21T01:38:22.186Z,0.80
2018-11-21T01:41:08.816Z,0.50
2018-11-21T01:43:56.146Z,0.50
2018-11-21T01:46:43.039Z,0.30
2018-11-21T01:49:30.759Z,0.20
2018-11-21T01:52:17.712Z,0.10
2018-11-21T01:55:04.542Z,0.10
2018-11-21T01:57:51.687Z,0.10
2018-11-21T02:00:38.788Z,0.10
2018-11-21T02:03:26.118Z,0.40
2018-11-21T02:06:13.271Z,0.70
2018-11-21T02:09:00.330Z,0.60
2018-11-21T02:11:47.518Z,0.50
2018-11-21T02:14:34.641Z,0.30
2018-11-21T02:17:21.171Z,0.30
2018-11-21T02:20:08.166Z,-0.30
2018-11-21T02:22:55.339Z,-0.10
2018-11-21T02:25:42.530Z,0.10
2018-11-21T02:28:30.093Z,0.10
2018-11-21T02:31:16.887Z,0.20
2018-11-21T02:34:03.739Z,0.50
2018-11-21T02:36:51.039Z,0.60
2018-11-21T02:39:37.561Z,0.50
2018-11-21T02:42:24.428Z,0.60
2018-11-21T02:45:12.389Z,0.60
2018-11-21T02:47:59.368Z,0.80
2018-11-21T02:50:45.988Z,0.80
2018-11-21T02:53:32.870Z,0.40
2018-11-21T02:56:19.676Z,0.60
2018-11-21T02:59:06.329Z,0.90
2018-11-21T03:01:53.199Z,0.70
2018-11-21T03:04:40.159Z,0.80
2018-11-21T03:07:27.245Z,0.70
2018-11-21T03:10:14.089Z,0.70
2018-11-21T03:13:00.656Z,0.80
2018-11-21T03:15:47.502Z,0.80
2018-11-21T03:18:34.393Z,0.90
2018-11-21T03:21:21.158Z,0.90
2018-11-21T03:24:07.743Z,0.50
2018-11-21T03:26:54.592Z,0.40
2018-11-21T03:29:41.369Z,0.40
2018-11-21T03:32:27.944Z,0.40
2018-11-21T03:35:15.086Z,0.50
2018-11-21T03:38:02.262Z,0.40
2018-11-21T03:40:49.117Z,0.20
2018-11-21T03:43:36.215Z,0.30
2018-11-21T03:46:22.772Z,0.40
2018-11-21T03:49:09.369Z,0.40
2018-11-21T03:51:56.497Z,0.40
2018-11-21T03:54:43.362Z,0.50
2018-11-21T03:57:30.628Z,0.50
2018-11-21T04:00:17.433Z,0.50
2018-11-21T04:03:03.985Z,0.40
2018-11-21T04:05:51.138Z,0.40
2018-11-21T04:08:42.653Z,0.50
2018-11-21T04:11:26.210Z,0.40
2018-11-21T04:14:12.812Z,0.50
2018-11-21T04:16:59.911Z,0.40
2018-11-21T04:19:47.326Z,0.50
2018-11-21T04:22:34.179Z,0.60
2018-11-21T04:25:21.036Z,0.50
2018-11-21T04:28:07.535Z,0.40
2018-11-21T04:30:54.400Z,0.50
2018-11-21T04:33:40.965Z,0.60
2018-11-21T04:36:27.548Z,0.60
2018-11-21T04:39:14.132Z,0.60
2018-11-21T04:42:00.988Z,0.50
2018-11-21T04:44:47.882Z,0.40
2018-11-21T04:47:34.814Z,0.50
2018-11-21T04:50:21.591Z,0.50
2018-11-21T04:53:08.176Z,0.60
2018-11-21T04:55:54.791Z,0.40
2018-11-21T04:58:41.351Z,0.40
2018-11-21T05:01:28.149Z,0.30
2018-11-21T05:04:14.734Z,0.40
2018-11-21T05:07:01.321Z,0.40
2018-11-21T05:09:48.146Z,0.50
2018-11-21T05:12:34.911Z,0.50
2018-11-21T05:15:22.050Z,0.60
2018-11-21T05:18:08.621Z,0.60
2018-11-21T05:20:55.193Z,0.50
2018-11-21T05:23:42.527Z,0.70
2018-11-21T05:26:29.048Z,0.70
2018-11-21T05:29:15.890Z,0.50
2018-11-21T05:32:02.476Z,0.60
2018-11-21T05:34:49.331Z,0.70
2018-11-21T05:37:35.999Z,0.70
2018-11-21T05:40:40.929Z,0.70
2018-11-21T05:46:31.723Z,0.80
2018-11-21T05:52:35.431Z,0.90
2018-11-21T05:55:15.972Z,0.90
2018-11-21T05:58:15.825Z,0.90
2018-11-21T06:00:55.580Z,0.80
2018-11-21T06:03:54.983Z,1.10
2018-11-21T06:12:59.003Z,1.40
2018-11-21T06:15:58.124Z,1.30
2018-11-21T06:21:43.224Z,1.20
2018-11-21T06:27:26.731Z,1.20
2018-11-21T06:30:06.494Z,1.10
2018-11-21T06:32:46.288Z,1.20
2018-11-21T06:35:45.486Z,1.10
2018-11-21T06:38:25.819Z,1.10
2018-11-21T06:41:05.658Z,1.00
2018-11-21T06:49:58.260Z,1.00
2018-11-21T06:55:56.090Z,0.80
2018-11-21T06:58:55.332Z,1.10
2018-11-21T07:04:39.338Z,1.10
2018-11-21T07:38:24.660Z,1.20
2018-11-21T07:47:13.876Z,1.20
2018-11-21T07:49:53.670Z,1.20
2018-11-21T07:58:45.346Z,1.30
2018-11-21T08:04:48.411Z,1.30
2018-11-21T08:23:15.726Z,1.40
2018-11-21T08:26:12.454Z,1.50
2018-11-21T08:31:56.365Z,1.50
2018-11-21T08:34:56.759Z,1.50
2018-11-21T08:37:56.228Z,1.50
2018-11-21T08:44:02.829Z,1.70
2018-11-21T08:46:43.020Z,1.70
2018-11-21T08:49:22.828Z,1.70
2018-11-21T08:52:03.164Z,1.70
2018-11-21T08:54:42.620Z,1.80
2018-11-21T08:57:22.473Z,1.80
2018-11-21T09:00:21.466Z,1.80
2018-11-21T09:06:40.084Z,1.80
2018-11-21T09:09:19.483Z,1.80
2018-11-21T09:21:28.288Z,2.00
2018-11-21T09:24:08.065Z,2.00
2018-11-21T09:26:48.054Z,2.00
2018-11-21T09:32:43.766Z,1.90
2018-11-21T09:38:31.140Z,1.80
2018-11-21T09:41:11.201Z,2.00
2018-11-21T09:43:50.975Z,2.10
2018-11-21T09:46:30.796Z,2.00
2018-11-21T09:49:29.950Z,2.00
2018-11-21T09:55:14.362Z,2.10
2018-11-21T10:04:04.758Z,2.10
2018-11-21T10:16:22.827Z,2.10
2018-11-21T10:25:25.154Z,2.00
2018-11-21T10:28:04.894Z,2.10
2018-11-21T10:30:44.754Z,2.10
2018-11-21T10:36:17.584Z,2.20
2018-11-21T10:38:57.319Z,2.20
2018-11-21T10:41:56.556Z,2.30
2018-11-21T10:50:58.529Z,2.40
2018-11-21T10:53:38.185Z,2.40
2018-11-21T10:59:34.012Z,2.40
2018-11-21T11:11:45.644Z,2.50
2018-11-21T11:17:52.816Z,2.40
2018-11-21T11:20:51.676Z,2.30
2018-11-21T11:23:50.689Z,2.40
2018-11-21T11:33:02.503Z,2.30
2018-11-21T11:54:52.396Z,2.60
2018-11-21T11:57:44.094Z,2.50
2018-11-21T12:00:43.980Z,2.60
2018-11-21T12:03:45.520Z,2.50
2018-11-21T12:06:34.832Z,2.60
2018-11-21T12:09:24.382Z,2.50
2018-11-21T12:12:20.825Z,2.40
2018-11-21T12:15:07.985Z,2.40
2018-11-21T12:17:53.507Z,2.50
2018-11-21T12:20:38.833Z,2.60
2018-11-21T12:23:25.419Z,2.70
2018-11-21T12:26:10.778Z,2.60
2018-11-21T12:29:15.221Z,2.60
2018-11-21T12:32:01.345Z,2.60
2018-11-21T12:34:48.807Z,2.50
2018-11-21T12:37:34.775Z,2.60
2018-11-21T12:40:20.028Z,2.60
2018-11-21T12:43:05.613Z,2.70
2018-11-21T12:46:01.183Z,2.60
2018-11-21T12:48:56.691Z,2.60
2018-11-21T12:51:42.631Z,2.60
2018-11-21T12:54:27.660Z,2.60
2018-11-21T12:57:11.101Z,2.60
2018-11-21T12:59:53.641Z,2.60
2018-11-21T13:02:38.981Z,2.50
2018-11-21T13:05:25.705Z,2.60
2018-11-21T13:08:11.442Z,2.60
2018-11-21T13:10:48.426Z,2.60
2018-11-21T13:13:44.352Z,2.70
2018-11-21T13:16:49.943Z,2.70
